Ridgewood, New York
Current Conditions -  °F | °C
As of 11:51 AM on Thursday 18 Dec 2014 (Local Time) from KLGA Reporting Station
Broken Clouds Broken Clouds  
Wind Chill: 30°   Ceiling: 4000
Heat Index: 40°   Visibility: 10mi
Dew Point: 24°   Wind: 22mph
Humidity: 53%   Direction: 300°WNW
Pressure: 29.96"   Gusts: 30mph
Location:  40.7°N, 73.9°W
Report Text: KLGA 181651Z 30019G26KT 10SM BKN040 04/M04 A2996 RMK AO2 PK WND 31026/1645 SLP145 T00441044
Loading
Personal Weather Stations






























Interactive Weather Map New forecast layout! Learn more

10-Day Weather Forecast

Advertisements
Track Severe Weather on mobile